Time;durP1;ratioP1;P1;durP2;ratioP2;P2;SDS_P1;SDS_P2;PMS_P1;PMS_P2;Temp;Humidity;BMP_temperature;BMP_pressure;BME280_temperature;BME280_humidity;BME280_pressure;Samples;Min_cycle;Max_cycle;Signal;HPM_P1;HPM_P2
2021/05/23 00:00:26;;;;;;;7.55;1.90;;;;;;;;;;5003186;28;20033;-64
2021/05/23 00:03:07;;;;;;;5.75;1.95;;;;;;;;;;5017830;22;20048;-88
2021/05/23 00:05:42;;;;;;;14.40;2.20;;;;;;;;;;5011711;28;20034;-89
2021/05/23 00:08:32;;;;;;;7.20;1.80;;;;;;;;;;5003320;28;20077;-89
2021/05/23 00:11:09;;;;;;;12.23;2.83;;;;;;;;;;4998486;28;20018;-89
2021/05/23 00:13:39;;;;;;;8.65;1.75;;;;;;;;;;4993025;28;20033;-89
2021/05/23 00:16:26;;;;;;;8.95;2.15;;;;;;;;;;5011861;28;20018;-89
2021/05/23 00:18:58;;;;;;;7.88;1.77;;;;;;;;;;5005575;28;20030;-89
2021/05/23 00:21:30;;;;;;;4.72;1.25;;;;;;;;;;5011912;28;20060;-89
2021/05/23 00:24:15;;;;;;;7.50;2.20;;;;;;;;;;5003953;28;20030;-88
2021/05/23 00:26:50;;;;;;;7.05;1.95;;;;;;;;;;4995820;28;20042;-90
2021/05/23 00:31:44;;;;;;;3.85;1.70;;;;;;;;;;5048451;28;20045;-68
2021/05/23 00:34:09;;;;;;;5.85;1.90;;;;;;;;;;5049984;28;20059;-68
2021/05/23 00:36:35;;;;;;;6.82;1.52;;;;;;;;;;5049635;28;20113;-68
2021/05/23 00:39:00;;;;;;;4.87;1.73;;;;;;;;;;5050241;28;20021;-68
2021/05/23 00:41:25;;;;;;;5.30;1.58;;;;;;;;;;5049676;28;20362;-68
2021/05/23 00:43:50;;;;;;;7.40;1.77;;;;;;;;;;5050641;28;20082;-70
2021/05/23 00:46:15;;;;;;;5.60;1.50;;;;;;;;;;5049265;28;20279;-67
2021/05/23 00:48:41;;;;;;;6.10;1.53;;;;;;;;;;5049477;28;20017;-68
2021/05/23 00:51:06;;;;;;;4.53;1.63;;;;;;;;;;5049254;28;20264;-70
2021/05/23 00:53:31;;;;;;;8.07;1.83;;;;;;;;;;5049519;28;20032;-67
2021/05/23 00:55:57;;;;;;;4.18;1.60;;;;;;;;;;5031711;28;20473;-67
2021/05/23 00:58:22;;;;;;;3.90;1.60;;;;;;;;;;5049852;28;20021;-67
2021/05/23 01:00:53;;;;;;;4.78;1.52;;;;;;;;;;5049826;28;20112;-68
2021/05/23 01:03:28;;;;;;;3.53;1.38;;;;;;;;;;5049350;28;20162;-67
2021/05/23 01:06:06;;;;;;;5.13;1.73;;;;;;;;;;5048485;28;20017;-67
2021/05/23 01:08:33;;;;;;;9.80;1.70;;;;;;;;;;5049617;28;20021;-67
2021/05/23 01:11:01;;;;;;;2.30;1.30;;;;;;;;;;5049769;28;20077;-67
2021/05/23 01:13:38;;;;;;;2.28;0.95;;;;;;;;;;5048249;28;20151;-68
2021/05/23 01:16:09;;;;;;;1.30;1.00;;;;;;;;;;5048259;28;20429;-67
2021/05/23 01:18:43;;;;;;;2.67;1.25;;;;;;;;;;5048757;28;20063;-68
2021/05/23 01:21:08;;;;;;;2.17;1.38;;;;;;;;;;5049045;28;20017;-69
2021/05/23 01:23:41;;;;;;;2.65;0.98;;;;;;;;;;5050360;28;20020;-69
2021/05/23 01:26:07;;;;;;;1.92;0.98;;;;;;;;;;5052501;28;20550;-69
2021/05/23 01:28:39;;;;;;;4.28;1.40;;;;;;;;;;5052236;28;20066;-67
2021/05/23 01:31:05;;;;;;;5.43;1.23;;;;;;;;;;5033662;28;20470;-70
2021/05/23 01:33:31;;;;;;;1.90;1.17;;;;;;;;;;5050184;28;20025;-69
2021/05/23 01:35:57;;;;;;;2.72;1.40;;;;;;;;;;5052460;28;20044;-67
2021/05/23 01:38:22;;;;;;;2.13;1.30;;;;;;;;;;5053269;28;20013;-67
2021/05/23 01:40:49;;;;;;;5.32;1.38;;;;;;;;;;5052739;28;20032;-68
2021/05/23 01:43:15;;;;;;;6.60;1.33;;;;;;;;;;5052614;28;20483;-67
2021/05/23 01:45:40;;;;;;;6.45;1.50;;;;;;;;;;5052940;28;20049;-67
2021/05/23 01:48:06;;;;;;;4.05;1.40;;;;;;;;;;5052177;28;20029;-67
2021/05/23 01:50:32;;;;;;;3.60;1.42;;;;;;;;;;5052412;28;20115;-68
2021/05/23 01:52:58;;;;;;;4.97;1.35;;;;;;;;;;5052519;28;20083;-67
2021/05/23 01:55:24;;;;;;;5.50;1.30;;;;;;;;;;5052313;28;20024;-67
2021/05/23 01:57:50;;;;;;;5.10;1.30;;;;;;;;;;5051742;28;20025;-68
2021/05/23 02:00:17;;;;;;;3.03;1.33;;;;;;;;;;5034144;28;20028;-67
2021/05/23 02:02:42;;;;;;;2.90;1.13;;;;;;;;;;5052344;28;20048;-67
2021/05/23 02:05:08;;;;;;;4.20;1.10;;;;;;;;;;5052182;28;20141;-67
2021/05/23 02:07:33;;;;;;;6.28;1.10;;;;;;;;;;5051697;28;20083;-67
2021/05/23 02:09:59;;;;;;;5.97;1.30;;;;;;;;;;5052603;28;20061;-67
2021/05/23 02:12:25;;;;;;;3.72;2.13;;;;;;;;;;5052207;28;20013;-67
2021/05/23 02:14:50;;;;;;;3.85;0.88;;;;;;;;;;5052702;28;20029;-68
2021/05/23 02:17:15;;;;;;;2.20;0.80;;;;;;;;;;5051657;28;20029;-67
2021/05/23 02:19:49;;;;;;;3.78;1.20;;;;;;;;;;5052724;28;20287;-67
2021/05/23 02:22:14;;;;;;;5.15;1.40;;;;;;;;;;5051938;28;20056;-67
2021/05/23 02:24:41;;;;;;;4.22;1.00;;;;;;;;;;5053208;28;20053;-67
2021/05/23 02:27:06;;;;;;;3.42;1.20;;;;;;;;;;5050946;28;20135;-70
2021/05/23 02:29:32;;;;;;;1.33;0.70;;;;;;;;;;5051840;28;20116;-67
2021/05/23 02:31:57;;;;;;;5.57;1.20;;;;;;;;;;5051731;28;20263;-68
2021/05/23 02:34:24;;;;;;;5.32;1.40;;;;;;;;;;5051257;28;20029;-71
2021/05/23 02:36:49;;;;;;;3.17;1.15;;;;;;;;;;5051086;28;20465;-67
2021/05/23 02:39:15;;;;;;;2.47;1.30;;;;;;;;;;5052208;28;20032;-69
2021/05/23 02:41:40;;;;;;;2.42;1.02;;;;;;;;;;5051750;28;20307;-67
2021/05/23 02:44:05;;;;;;;5.43;1.00;;;;;;;;;;5051501;28;20024;-68
2021/05/23 02:46:30;;;;;;;4.60;1.15;;;;;;;;;;5051257;28;20017;-67
2021/05/23 02:48:56;;;;;;;1.20;0.90;;;;;;;;;;5050878;28;20018;-67
2021/05/23 02:51:22;;;;;;;4.82;1.30;;;;;;;;;;5051352;28;20369;-68
2021/05/23 02:53:47;;;;;;;4.60;1.10;;;;;;;;;;5051618;28;20013;-68
2021/05/23 02:56:12;;;;;;;1.60;1.03;;;;;;;;;;5051112;28;20265;-67
2021/05/23 02:58:37;;;;;;;9.02;1.70;;;;;;;;;;5051342;28;20632;-70
2021/05/23 03:01:02;;;;;;;8.93;1.37;;;;;;;;;;5051305;28;20030;-68
2021/05/23 03:03:28;;;;;;;7.32;1.48;;;;;;;;;;5050882;28;20303;-68
2021/05/23 03:05:53;;;;;;;4.13;1.60;;;;;;;;;;5050762;28;20013;-68
2021/05/23 03:08:18;;;;;;;2.50;1.33;;;;;;;;;;5050926;28;20400;-68
2021/05/23 03:10:44;;;;;;;6.33;1.87;;;;;;;;;;5051349;28;20271;-68
2021/05/23 03:13:10;;;;;;;4.65;1.75;;;;;;;;;;5050802;28;20416;-68
2021/05/23 03:15:36;;;;;;;3.53;1.80;;;;;;;;;;5051396;28;20107;-68
2021/05/23 03:18:03;;;;;;;2.15;1.80;;;;;;;;;;5050392;28;20028;-70
2021/05/23 03:20:28;;;;;;;3.83;1.92;;;;;;;;;;5050688;28;20083;-70
2021/05/23 03:22:55;;;;;;;8.40;2.03;;;;;;;;;;5050458;28;20025;-68
2021/05/23 03:25:21;;;;;;;4.90;2.58;;;;;;;;;;5033249;28;20111;-68
2021/05/23 03:27:46;;;;;;;7.95;2.05;;;;;;;;;;5050238;28;20128;-71
2021/05/23 03:30:14;;;;;;;3.35;1.70;;;;;;;;;;5050249;28;20025;-68
2021/05/23 03:32:39;;;;;;;4.85;1.67;;;;;;;;;;5050312;28;20029;-71
2021/05/23 03:35:06;;;;;;;2.65;1.88;;;;;;;;;;5050438;28;20488;-69
2021/05/23 03:37:31;;;;;;;3.28;2.20;;;;;;;;;;5049488;28;20029;-69
2021/05/23 03:39:56;;;;;;;4.38;2.50;;;;;;;;;;5050824;28;20023;-71
2021/05/23 03:42:21;;;;;;;11.93;2.80;;;;;;;;;;5050118;28;20029;-68
2021/05/23 03:44:46;;;;;;;6.95;2.55;;;;;;;;;;5050324;28;20400;-71
2021/05/23 03:47:12;;;;;;;4.30;2.60;;;;;;;;;;5049344;28;20043;-68
2021/05/23 03:49:38;;;;;;;8.38;2.50;;;;;;;;;;5050464;28;20021;-70
2021/05/23 03:52:10;;;;;;;6.93;2.38;;;;;;;;;;5050068;28;20013;-72
2021/05/23 03:54:35;;;;;;;4.35;2.70;;;;;;;;;;5050849;28;20074;-70
2021/05/23 03:57:01;;;;;;;5.80;2.80;;;;;;;;;;5050380;28;20033;-68
2021/05/23 03:59:26;;;;;;;9.43;3.60;;;;;;;;;;5050288;28;20473;-68
2021/05/23 04:01:52;;;;;;;20.05;9.15;;;;;;;;;;5050013;28;20036;-68
2021/05/23 04:04:17;;;;;;;22.58;6.38;;;;;;;;;;5049318;28;20040;-67
2021/05/23 04:06:43;;;;;;;11.13;5.95;;;;;;;;;;5049866;28;20473;-67
2021/05/23 04:09:08;;;;;;;8.65;3.58;;;;;;;;;;5050077;28;20040;-69
2021/05/23 04:11:37;;;;;;;10.93;3.17;;;;;;;;;;5049960;28;20448;-68
2021/05/23 04:14:02;;;;;;;7.95;2.70;;;;;;;;;;5049947;28;20317;-70
2021/05/23 04:16:27;;;;;;;4.53;2.38;;;;;;;;;;5049635;28;20032;-68
2021/05/23 04:18:52;;;;;;;5.67;2.90;;;;;;;;;;5049739;28;20237;-67
2021/05/23 04:21:18;;;;;;;5.90;3.00;;;;;;;;;;5031854;28;20276;-69
2021/05/23 04:23:43;;;;;;;4.57;2.65;;;;;;;;;;5050191;28;20021;-67
2021/05/23 04:26:08;;;;;;;6.60;2.85;;;;;;;;;;5049414;28;20028;-69
2021/05/23 04:28:33;;;;;;;6.60;2.53;;;;;;;;;;5050132;28;20017;-68
2021/05/23 04:30:59;;;;;;;3.60;2.30;;;;;;;;;;5049983;28;20036;-69
2021/05/23 04:33:24;;;;;;;2.78;2.13;;;;;;;;;;5049377;28;20751;-67
2021/05/23 04:35:51;;;;;;;4.57;2.15;;;;;;;;;;5049467;28;20060;-68
2021/05/23 04:38:17;;;;;;;3.33;2.15;;;;;;;;;;5050368;28;20020;-67
2021/05/23 04:40:42;;;;;;;7.53;2.10;;;;;;;;;;5050195;28;20021;-67
2021/05/23 04:43:07;;;;;;;5.57;2.37;;;;;;;;;;5049683;28;20067;-69
2021/05/23 04:45:33;;;;;;;3.73;1.70;;;;;;;;;;5049881;28;20833;-68
2021/05/23 04:47:58;;;;;;;2.42;1.85;;;;;;;;;;5049281;28;20290;-67
2021/05/23 04:50:24;;;;;;;1.83;1.50;;;;;;;;;;5049457;28;20032;-68
2021/05/23 04:52:49;;;;;;;3.78;1.60;;;;;;;;;;5049791;28;20028;-68
2021/05/23 04:55:15;;;;;;;1.98;1.60;;;;;;;;;;5049412;28;20032;-70
2021/05/23 04:57:40;;;;;;;3.70;1.85;;;;;;;;;;5046059;28;20040;-68
2021/05/23 05:00:06;;;;;;;4.68;2.40;;;;;;;;;;5051478;28;20493;-68
2021/05/23 05:02:32;;;;;;;7.18;2.38;;;;;;;;;;5050858;28;20460;-70
2021/05/23 05:04:57;;;;;;;6.30;2.85;;;;;;;;;;5051163;28;20029;-69
2021/05/23 05:07:22;;;;;;;9.77;1.20;;;;;;;;;;5050830;28;20489;-69
2021/05/23 05:09:47;;;;;;;9.73;2.20;;;;;;;;;;5051520;28;20039;-68
2021/05/23 05:12:12;;;;;;;4.57;2.30;;;;;;;;;;5051264;28;20023;-68
2021/05/23 05:14:37;;;;;;;12.93;4.00;;;;;;;;;;5051214;28;20267;-68
2021/05/23 05:17:03;;;;;;;10.02;3.25;;;;;;;;;;5033598;28;20032;-68
2021/05/23 05:19:28;;;;;;;6.03;2.50;;;;;;;;;;5050940;28;20041;-68
2021/05/23 05:21:53;;;;;;;6.80;2.05;;;;;;;;;;5032883;28;20027;-68
2021/05/23 05:24:18;;;;;;;4.47;1.93;;;;;;;;;;5051236;28;20036;-68
2021/05/23 05:26:43;;;;;;;7.38;1.60;;;;;;;;;;5050939;28;20854;-68
2021/05/23 05:29:09;;;;;;;3.00;2.08;;;;;;;;;;5050783;28;20044;-68
2021/05/23 05:31:34;;;;;;;7.88;2.28;;;;;;;;;;5049359;28;20028;-69
2021/05/23 05:33:59;;;;;;;4.88;2.28;;;;;;;;;;5056414;28;20035;-70
2021/05/23 05:36:24;;;;;;;3.67;1.33;;;;;;;;;;5055098;28;20108;-70
2021/05/23 05:38:50;;;;;;;5.80;2.05;;;;;;;;;;5055496;28;20374;-69
2021/05/23 05:41:16;;;;;;;3.78;1.90;;;;;;;;;;5066993;28;20032;-69
2021/05/23 05:43:41;;;;;;;12.27;2.35;;;;;;;;;;5052827;28;20017;-69
2021/05/23 05:46:07;;;;;;;5.90;2.38;;;;;;;;;;5050711;28;20376;-69
2021/05/23 05:48:32;;;;;;;5.18;2.53;;;;;;;;;;5050693;28;20027;-69
2021/05/23 05:50:57;;;;;;;7.57;2.20;;;;;;;;;;5048073;28;20094;-69
2021/05/23 05:53:22;;;;;;;6.80;1.92;;;;;;;;;;5051167;28;20271;-69
2021/05/23 05:55:47;;;;;;;10.65;2.17;;;;;;;;;;5060074;28;20509;-69
2021/05/23 05:58:13;;;;;;;14.80;3.43;;;;;;;;;;5050917;28;20025;-68
2021/05/23 06:00:38;;;;;;;12.73;2.70;;;;;;;;;;5050910;28;20412;-68
2021/05/23 06:03:03;;;;;;;9.93;2.85;;;;;;;;;;5049973;28;20278;-68
2021/05/23 06:05:29;;;;;;;8.40;2.92;;;;;;;;;;5050769;28;20036;-68
2021/05/23 06:07:54;;;;;;;9.80;3.33;;;;;;;;;;5049685;28;20031;-68
2021/05/23 06:10:19;;;;;;;7.78;2.97;;;;;;;;;;5049831;28;20032;-68
2021/05/23 06:12:44;;;;;;;4.33;2.70;;;;;;;;;;5051846;28;20056;-68
2021/05/23 06:15:10;;;;;;;12.17;3.47;;;;;;;;;;5050028;28;20263;-68
2021/05/23 06:17:36;;;;;;;9.90;3.30;;;;;;;;;;5049965;28;20270;-69
2021/05/23 06:20:01;;;;;;;11.10;3.40;;;;;;;;;;5050457;28;20512;-70
2021/05/23 06:22:26;;;;;;;9.05;2.67;;;;;;;;;;5049511;28;20025;-67
2021/05/23 06:24:52;;;;;;;15.23;2.88;;;;;;;;;;5056281;28;20104;-68
2021/05/23 06:27:17;;;;;;;12.37;3.77;;;;;;;;;;5061851;28;20056;-70
2021/05/23 06:29:45;;;;;;;8.13;2.60;;;;;;;;;;5049093;28;20275;-68
2021/05/23 06:32:10;;;;;;;9.20;2.55;;;;;;;;;;5050419;28;20793;-68
2021/05/23 06:34:35;;;;;;;11.67;2.77;;;;;;;;;;5050349;28;20025;-70
2021/05/23 06:37:00;;;;;;;11.45;2.47;;;;;;;;;;5049466;28;20275;-69
2021/05/23 06:39:26;;;;;;;14.38;3.90;;;;;;;;;;5050370;28;20028;-69
2021/05/23 06:41:51;;;;;;;7.32;2.28;;;;;;;;;;5049830;28;20484;-70
2021/05/23 06:44:16;;;;;;;10.50;2.23;;;;;;;;;;5046788;28;20032;-68
2021/05/23 06:46:42;;;;;;;10.30;2.28;;;;;;;;;;5048808;28;20279;-70
2021/05/23 06:49:07;;;;;;;8.25;1.80;;;;;;;;;;5049759;28;20039;-69
2021/05/23 06:51:32;;;;;;;10.65;2.03;;;;;;;;;;5049586;28;20416;-69
2021/05/23 06:53:57;;;;;;;8.63;2.00;;;;;;;;;;5049613;28;20102;-68
2021/05/23 06:56:23;;;;;;;8.47;1.73;;;;;;;;;;5047701;28;20021;-68
2021/05/23 06:58:48;;;;;;;6.80;2.03;;;;;;;;;;5049620;28;20282;-69
2021/05/23 07:01:14;;;;;;;6.32;1.83;;;;;;;;;;5049339;28;20039;-68
2021/05/23 07:03:39;;;;;;;6.75;1.80;;;;;;;;;;5049169;28;20116;-68
2021/05/23 07:06:05;;;;;;;9.77;2.07;;;;;;;;;;5048933;28;20155;-69
2021/05/23 07:08:32;;;;;;;13.10;2.88;;;;;;;;;;5052144;28;20625;-68
2021/05/23 07:10:57;;;;;;;9.35;1.95;;;;;;;;;;5051010;28;20480;-69
2021/05/23 07:13:23;;;;;;;8.40;1.63;;;;;;;;;;5051489;28;20029;-68
2021/05/23 07:15:49;;;;;;;8.38;1.80;;;;;;;;;;5044588;28;20445;-68
2021/05/23 07:18:14;;;;;;;18.77;2.60;;;;;;;;;;5045727;28;20100;-68
2021/05/23 07:20:39;;;;;;;7.88;2.10;;;;;;;;;;5050830;28;20024;-67
2021/05/23 07:23:04;;;;;;;13.48;3.17;;;;;;;;;;5050789;28;20020;-68
2021/05/23 07:25:30;;;;;;;8.05;1.88;;;;;;;;;;5050498;28;20268;-67
2021/05/23 07:27:55;;;;;;;8.93;1.70;;;;;;;;;;5050908;28;20059;-70
2021/05/23 07:30:20;;;;;;;9.32;1.50;;;;;;;;;;5050818;28;20067;-67
2021/05/23 07:32:46;;;;;;;6.63;1.95;;;;;;;;;;5050898;28;20085;-68
2021/05/23 07:35:11;;;;;;;7.90;1.70;;;;;;;;;;5051143;28;20021;-67
2021/05/23 07:37:36;;;;;;;5.22;1.63;;;;;;;;;;5050418;28;20017;-70
2021/05/23 07:40:02;;;;;;;5.70;1.42;;;;;;;;;;5051179;28;20070;-71
2021/05/23 07:42:27;;;;;;;11.23;1.67;;;;;;;;;;5050270;28;20060;-68
2021/05/23 07:44:53;;;;;;;8.47;1.43;;;;;;;;;;5050642;28;20110;-69
2021/05/23 07:47:18;;;;;;;10.95;1.45;;;;;;;;;;5050090;28;20287;-68
2021/05/23 07:49:43;;;;;;;6.28;1.63;;;;;;;;;;5050337;28;20046;-66
2021/05/23 07:52:09;;;;;;;6.72;1.35;;;;;;;;;;5050249;28;20021;-68
2021/05/23 07:54:35;;;;;;;9.00;0.90;;;;;;;;;;5050490;28;20464;-69
2021/05/23 07:57:01;;;;;;;9.77;1.40;;;;;;;;;;5050147;28;20105;-71
2021/05/23 07:59:26;;;;;;;7.45;1.52;;;;;;;;;;5032334;28;20264;-70
2021/05/23 08:01:51;;;;;;;5.37;1.57;;;;;;;;;;5050042;28;20029;-70
2021/05/23 08:04:17;;;;;;;6.30;1.20;;;;;;;;;;5050760;28;20264;-69
2021/05/23 08:06:42;;;;;;;4.77;1.50;;;;;;;;;;5049716;28;20025;-70
2021/05/23 08:09:07;;;;;;;6.10;1.70;;;;;;;;;;5050302;28;20386;-69
2021/05/23 08:11:32;;;;;;;4.97;1.23;;;;;;;;;;5049929;28;20021;-69
2021/05/23 08:13:57;;;;;;;6.60;1.20;;;;;;;;;;5050528;28;20252;-69
2021/05/23 08:16:22;;;;;;;4.80;1.07;;;;;;;;;;5049702;28;20028;-70
2021/05/23 08:18:47;;;;;;;10.77;1.90;;;;;;;;;;5049989;28;20029;-69
2021/05/23 08:21:13;;;;;;;5.93;1.30;;;;;;;;;;5049883;28;20090;-64
2021/05/23 08:23:38;;;;;;;5.13;1.20;;;;;;;;;;5050006;28;20096;-63
2021/05/23 08:26:03;;;;;;;5.00;1.80;;;;;;;;;;5050472;28;20274;-65
2021/05/23 08:28:33;;;;;;;5.60;1.05;;;;;;;;;;5049754;28;20687;-64
2021/05/23 08:30:59;;;;;;;4.00;1.00;;;;;;;;;;5049859;28;20116;-68
2021/05/23 08:33:24;;;;;;;2.35;0.75;;;;;;;;;;5049773;28;20101;-68
2021/05/23 08:35:49;;;;;;;4.17;1.20;;;;;;;;;;5058237;28;20024;-68
2021/05/23 08:38:14;;;;;;;4.35;0.85;;;;;;;;;;5064692;28;20259;-70
2021/05/23 08:40:40;;;;;;;5.65;1.30;;;;;;;;;;5056187;28;20031;-70
2021/05/23 08:43:09;;;;;;;6.88;1.33;;;;;;;;;;5056449;28;20553;-68
2021/05/23 08:45:34;;;;;;;9.63;1.40;;;;;;;;;;5055696;28;20389;-69
2021/05/23 08:48:00;;;;;;;6.70;1.45;;;;;;;;;;5056191;28;20025;-69
2021/05/23 08:50:25;;;;;;;7.32;1.05;;;;;;;;;;5055638;28;20468;-69
2021/05/23 08:52:54;;;;;;;5.35;1.10;;;;;;;;;;5038603;28;20072;-68
2021/05/23 08:55:20;;;;;;;4.57;1.00;;;;;;;;;;5059549;28;20438;-67
2021/05/23 08:57:46;;;;;;;3.53;1.33;;;;;;;;;;5056354;28;20291;-69
2021/05/23 09:00:12;;;;;;;5.05;0.80;;;;;;;;;;5048062;28;20091;-68
2021/05/23 09:02:48;;;;;;;4.30;1.13;;;;;;;;;;5057710;28;20017;-67
2021/05/23 09:05:13;;;;;;;8.52;1.33;;;;;;;;;;5057785;28;20108;-68
2021/05/23 09:07:45;;;;;;;4.30;1.25;;;;;;;;;;5056380;28;20111;-67
2021/05/23 09:10:21;;;;;;;5.75;1.33;;;;;;;;;;5054685;28;20023;-68
2021/05/23 09:12:46;;;;;;;16.20;2.13;;;;;;;;;;5054466;28;20425;-68
2021/05/23 09:15:12;;;;;;;8.73;1.93;;;;;;;;;;5054866;28;20021;-69
2021/05/23 09:17:37;;;;;;;8.52;2.10;;;;;;;;;;5053909;28;20346;-67
2021/05/23 09:20:02;;;;;;;7.00;1.07;;;;;;;;;;5054626;28;20040;-70
2021/05/23 09:22:28;;;;;;;11.73;1.58;;;;;;;;;;5036069;28;20298;-69
2021/05/23 09:24:58;;;;;;;10.15;1.33;;;;;;;;;;5060893;28;20028;-68
2021/05/23 09:27:24;;;;;;;9.55;1.08;;;;;;;;;;5036216;28;20095;-70
2021/05/23 09:30:01;;;;;;;4.90;0.95;;;;;;;;;;5054343;28;20017;-70
2021/05/23 09:32:27;;;;;;;2.97;0.88;;;;;;;;;;5054051;28;20494;-69
2021/05/23 09:35:01;;;;;;;5.22;0.90;;;;;;;;;;5054217;28;20029;-70
2021/05/23 09:37:26;;;;;;;6.70;1.10;;;;;;;;;;5053733;28;20024;-69
2021/05/23 09:39:51;;;;;;;7.77;1.10;;;;;;;;;;5053960;28;20063;-67
2021/05/23 09:42:17;;;;;;;3.60;0.77;;;;;;;;;;5053706;28;20260;-69
2021/05/23 09:44:42;;;;;;;13.95;1.50;;;;;;;;;;5056754;28;20275;-68
2021/05/23 09:47:12;;;;;;;5.20;0.98;;;;;;;;;;5050931;28;20178;-67
2021/05/23 09:49:42;;;;;;;8.35;1.13;;;;;;;;;;5050526;28;20389;-69
2021/05/23 09:52:11;;;;;;;2.92;0.80;;;;;;;;;;5050450;28;20037;-67
2021/05/23 09:54:42;;;;;;;2.17;0.75;;;;;;;;;;5038399;28;20017;-69
2021/05/23 09:57:12;;;;;;;5.93;0.80;;;;;;;;;;5052629;28;20580;-70
2021/05/23 09:59:37;;;;;;;5.33;1.20;;;;;;;;;;5054243;28;20036;-69
2021/05/23 10:02:06;;;;;;;1.52;0.60;;;;;;;;;;5049960;28;20469;-67
2021/05/23 10:04:31;;;;;;;5.13;0.68;;;;;;;;;;5045974;28;20022;-68
2021/05/23 10:06:58;;;;;;;1.45;0.90;;;;;;;;;;5032565;28;20347;-70
2021/05/23 10:09:23;;;;;;;5.35;0.93;;;;;;;;;;5044853;28;20023;-67
2021/05/23 10:11:49;;;;;;;8.27;1.40;;;;;;;;;;5052625;28;20013;-68
2021/05/23 10:14:14;;;;;;;5.13;1.23;;;;;;;;;;5052248;28;20021;-69
2021/05/23 10:16:40;;;;;;;2.13;0.90;;;;;;;;;;5049275;28;20492;-69
2021/05/23 10:19:05;;;;;;;2.72;0.65;;;;;;;;;;5052470;28;20262;-68
2021/05/23 10:21:30;;;;;;;1.83;0.68;;;;;;;;;;5034365;28;20051;-68
2021/05/23 10:23:57;;;;;;;5.10;1.13;;;;;;;;;;5052444;28;20028;-68
2021/05/23 10:26:25;;;;;;;7.15;2.20;;;;;;;;;;5051761;28;20306;-68
2021/05/23 10:28:50;;;;;;;4.20;1.33;;;;;;;;;;5051788;28;20104;-68
2021/05/23 10:31:26;;;;;;;1.00;0.45;;;;;;;;;;5051941;28;20108;-68
2021/05/23 10:33:52;;;;;;;3.33;0.98;;;;;;;;;;5052421;28;20013;-68
2021/05/23 10:36:28;;;;;;;4.55;1.10;;;;;;;;;;5051951;28;20055;-68
2021/05/23 10:38:54;;;;;;;2.38;0.70;;;;;;;;;;5052288;28;20120;-68
2021/05/23 10:41:19;;;;;;;3.67;0.70;;;;;;;;;;5052070;28;20021;-68
2021/05/23 10:43:47;;;;;;;3.47;0.85;;;;;;;;;;5051742;28;20020;-68
2021/05/23 10:46:13;;;;;;;5.75;0.82;;;;;;;;;;5051397;28;20017;-68
2021/05/23 10:48:39;;;;;;;4.38;0.90;;;;;;;;;;5051480;28;20074;-69
2021/05/23 10:51:15;;;;;;;2.70;0.82;;;;;;;;;;5051640;28;20409;-68
2021/05/23 10:53:40;;;;;;;7.05;1.27;;;;;;;;;;5051120;28;20025;-68
2021/05/23 10:56:05;;;;;;;4.20;1.50;;;;;;;;;;5050953;28;20063;-68
2021/05/23 10:58:31;;;;;;;12.48;2.22;;;;;;;;;;5051919;28;20079;-68
2021/05/23 11:00:57;;;;;;;7.97;1.02;;;;;;;;;;5051667;28;20395;-67
2021/05/23 11:03:25;;;;;;;6.15;1.50;;;;;;;;;;5051544;28;20024;-68
2021/05/23 11:06:03;;;;;;;4.38;1.17;;;;;;;;;;5051218;28;20021;-68
2021/05/23 11:08:31;;;;;;;3.83;1.48;;;;;;;;;;5050280;28;20025;-68
2021/05/23 11:10:57;;;;;;;5.70;1.95;;;;;;;;;;5051066;28;20550;-69
2021/05/23 11:13:25;;;;;;;3.13;1.00;;;;;;;;;;5051141;28;20104;-69
2021/05/23 11:15:50;;;;;;;2.65;0.85;;;;;;;;;;5051166;28;20017;-68
2021/05/23 11:18:19;;;;;;;4.30;0.90;;;;;;;;;;5033452;28;20078;-68
2021/05/23 11:21:07;;;;;;;4.97;1.00;;;;;;;;;;5049783;28;20325;-68
2021/05/23 11:23:42;;;;;;;3.47;1.05;;;;;;;;;;5046860;28;20037;-68
2021/05/23 11:26:10;;;;;;;5.28;1.20;;;;;;;;;;5050656;28;20035;-68
2021/05/23 11:28:35;;;;;;;5.40;0.90;;;;;;;;;;5060435;28;20465;-68
2021/05/23 11:31:00;;;;;;;2.03;1.00;;;;;;;;;;5048509;28;20061;-69
2021/05/23 11:33:26;;;;;;;8.00;1.00;;;;;;;;;;5050279;28;20264;-68
2021/05/23 11:35:53;;;;;;;8.15;0.98;;;;;;;;;;5050390;28;20029;-69
2021/05/23 11:38:19;;;;;;;6.80;1.25;;;;;;;;;;5050616;28;20017;-69
2021/05/23 11:40:44;;;;;;;9.20;1.00;;;;;;;;;;5053867;28;20036;-68
2021/05/23 11:43:14;;;;;;;6.00;1.40;;;;;;;;;;5058356;28;20621;-70
2021/05/23 11:45:44;;;;;;;5.72;1.10;;;;;;;;;;5050066;28;20492;-70
2021/05/23 11:48:09;;;;;;;4.50;1.30;;;;;;;;;;5048609;28;20033;-69
2021/05/23 11:50:35;;;;;;;6.22;1.10;;;;;;;;;;5049822;28;20439;-69
2021/05/23 11:53:00;;;;;;;3.00;1.08;;;;;;;;;;5031295;28;20029;-70
2021/05/23 11:55:26;;;;;;;5.53;1.25;;;;;;;;;;5049500;28;20092;-69
2021/05/23 11:58:02;;;;;;;8.82;1.40;;;;;;;;;;5049348;28;20020;-68
2021/05/23 12:00:27;;;;;;;3.08;1.00;;;;;;;;;;5049387;28;20082;-69
2021/05/23 12:02:56;;;;;;;12.33;2.07;;;;;;;;;;5049519;28;20020;-69
2021/05/23 12:05:41;;;;;;;6.13;1.40;;;;;;;;;;5056598;28;20275;-69
2021/05/23 12:08:17;;;;;;;2.45;0.90;;;;;;;;;;5045883;28;20069;-69
2021/05/23 12:10:42;;;;;;;4.53;1.00;;;;;;;;;;5049176;28;20024;-69
2021/05/23 12:13:07;;;;;;;2.97;0.80;;;;;;;;;;5048443;28;20028;-69
2021/05/23 12:15:33;;;;;;;6.80;0.98;;;;;;;;;;5031055;28;20032;-69
2021/05/23 12:17:58;;;;;;;2.53;0.88;;;;;;;;;;5031328;28;20024;-69
2021/05/23 12:20:23;;;;;;;5.07;1.07;;;;;;;;;;5047422;28;20031;-68
2021/05/23 12:22:50;;;;;;;3.33;1.67;;;;;;;;;;5049624;28;20255;-69
2021/05/23 12:25:15;;;;;;;2.63;0.82;;;;;;;;;;5048555;28;20104;-69
2021/05/23 12:27:40;;;;;;;3.85;1.00;;;;;;;;;;5052940;28;20467;-69
2021/05/23 12:30:07;;;;;;;7.77;0.83;;;;;;;;;;5035443;28;571666;-70
2021/05/23 12:32:46;;;;;;;3.22;0.90;;;;;;;;;;5047483;28;20724;-69
2021/05/23 12:35:14;;;;;;;4.75;0.98;;;;;;;;;;5034106;28;20020;-69
2021/05/23 12:37:41;;;;;;;8.77;1.45;;;;;;;;;;5049837;28;20025;-69
2021/05/23 12:40:19;;;;;;;2.88;0.93;;;;;;;;;;5048930;28;20029;-68
2021/05/23 12:42:44;;;;;;;4.57;0.80;;;;;;;;;;5049860;28;20097;-68
2021/05/23 12:45:10;;;;;;;3.38;0.80;;;;;;;;;;5044794;22;20125;-65
2021/05/23 12:47:46;;;;;;;4.82;1.20;;;;;;;;;;5010248;28;20036;-66
2021/05/23 12:50:11;;;;;;;3.08;0.90;;;;;;;;;;5029156;28;20579;-65
2021/05/23 12:52:36;;;;;;;3.58;0.95;;;;;;;;;;5030180;28;20049;-65
2021/05/23 12:55:02;;;;;;;5.72;1.15;;;;;;;;;;5017973;28;20390;-65
2021/05/23 12:57:28;;;;;;;5.82;1.55;;;;;;;;;;5009977;28;20366;-64
2021/05/23 12:59:53;;;;;;;4.18;0.80;;;;;;;;;;5011569;28;20108;-65
2021/05/23 13:02:21;;;;;;;3.27;0.83;;;;;;;;;;5015435;28;20068;-65
2021/05/23 13:04:48;;;;;;;2.50;0.60;;;;;;;;;;5014076;28;20268;-65
2021/05/23 13:07:13;;;;;;;5.28;0.90;;;;;;;;;;5018297;28;20489;-65
2021/05/23 13:09:39;;;;;;;4.20;0.80;;;;;;;;;;5029985;28;20132;-63
2021/05/23 13:12:06;;;;;;;3.38;0.90;;;;;;;;;;5029765;28;20018;-65
2021/05/23 13:14:33;;;;;;;5.00;0.90;;;;;;;;;;5027469;28;20084;-62
2021/05/23 13:16:59;;;;;;;3.20;0.80;;;;;;;;;;5027352;28;20010;-65
2021/05/23 13:19:25;;;;;;;2.08;0.82;;;;;;;;;;5030507;28;20536;-65
2021/05/23 13:21:52;;;;;;;4.00;0.88;;;;;;;;;;5015449;28;20057;-66
2021/05/23 13:24:21;;;;;;;3.53;0.98;;;;;;;;;;5014066;28;20032;-67
2021/05/23 13:27:04;;;;;;;3.40;1.10;;;;;;;;;;5030013;28;20058;-63
2021/05/23 13:29:30;;;;;;;6.35;1.33;;;;;;;;;;5027427;28;20095;-67
2021/05/23 13:31:55;;;;;;;8.60;1.07;;;;;;;;;;5032558;28;20474;-66
2021/05/23 13:34:21;;;;;;;4.93;0.90;;;;;;;;;;5033451;28;20291;-64
2021/05/23 13:36:46;;;;;;;3.33;1.33;;;;;;;;;;5018718;28;20029;-66
2021/05/23 13:39:13;;;;;;;3.55;1.00;;;;;;;;;;5021335;28;20078;-65
2021/05/23 13:41:38;;;;;;;6.15;0.88;;;;;;;;;;5027514;28;20024;-66
2021/05/23 13:44:05;;;;;;;3.03;0.82;;;;;;;;;;5031293;28;20021;-65
2021/05/23 13:46:30;;;;;;;4.30;1.02;;;;;;;;;;5030241;28;20025;-64
2021/05/23 13:48:55;;;;;;;3.70;0.77;;;;;;;;;;5023601;28;20030;-66
2021/05/23 13:51:20;;;;;;;2.37;0.90;;;;;;;;;;5020419;28;20093;-65
2021/05/23 13:53:45;;;;;;;2.97;0.88;;;;;;;;;;5021042;28;20257;-67
2021/05/23 13:56:11;;;;;;;2.13;0.83;;;;;;;;;;5022821;28;20117;-65
2021/05/23 13:58:36;;;;;;;4.85;1.08;;;;;;;;;;5024893;28;20292;-65
2021/05/23 14:01:01;;;;;;;5.00;0.80;;;;;;;;;;5030485;28;20721;-65
2021/05/23 14:03:26;;;;;;;1.90;0.60;;;;;;;;;;5025149;28;20287;-65
2021/05/23 14:05:53;;;;;;;3.50;0.83;;;;;;;;;;5031571;28;20022;-63
2021/05/23 14:08:19;;;;;;;3.03;0.70;;;;;;;;;;5032969;28;20280;-65
2021/05/23 14:10:44;;;;;;;3.60;1.27;;;;;;;;;;5032054;28;20465;-63
2021/05/23 14:13:09;;;;;;;2.22;0.90;;;;;;;;;;5022895;28;20502;-65
2021/05/23 14:15:36;;;;;;;6.55;1.42;;;;;;;;;;5031232;28;20013;-65
2021/05/23 14:18:02;;;;;;;2.85;1.25;;;;;;;;;;5023268;28;20029;-65
2021/05/23 14:20:27;;;;;;;4.30;0.88;;;;;;;;;;5020047;28;20034;-64
2021/05/23 14:22:53;;;;;;;2.60;0.70;;;;;;;;;;5030896;28;20022;-64
2021/05/23 14:25:18;;;;;;;5.03;0.85;;;;;;;;;;5030144;28;20778;-64
2021/05/23 14:27:43;;;;;;;2.08;0.68;;;;;;;;;;5024532;28;20113;-64
2021/05/23 14:30:09;;;;;;;4.13;0.77;;;;;;;;;;5020755;28;20025;-64
2021/05/23 14:32:35;;;;;;;4.88;1.15;;;;;;;;;;5019818;28;20068;-64
2021/05/23 14:35:00;;;;;;;1.60;0.50;;;;;;;;;;5016873;28;20034;-64
2021/05/23 14:37:25;;;;;;;3.45;0.80;;;;;;;;;;5012354;28;20736;-64
2021/05/23 14:39:50;;;;;;;2.15;0.80;;;;;;;;;;5025390;28;20029;-64